Terminal Aerodrome Forecast
Issued by NWS

Home | Current Version | Previous Version | Text Only | Print | Product List | Glossary On
Versions: 1 2 3 4 5 6 7 8 9 10 11 12 13 14 15 16 17 18 19 20 21 22
000
FTUS43 KDVN 242300
TAFCID
TAF
KCID 242340Z 2500/2524 21006KT P6SM BKN150
     FM250300 16005KT P6SM -RA VCSH BKN060 OVC100
     FM250600 12004KT 4SM -RA BR BKN025 OVC040
     FM251200 06011G19KT 1 1/2SM -SN BR BKN006 OVC015
     FM251700 02014G23KT P6SM BKN015 OVC030=

USA.gov is the U.S. government's official web portal to all federal, state and local government web resources and services.